createdAt,value
2022-09-15T00:00:28.753Z,18.05
2022-09-15T00:01:28.757Z,18.03
2022-09-15T00:02:28.892Z,18.05
2022-09-15T00:03:28.709Z,18.03
2022-09-15T00:04:28.700Z,18.03
2022-09-15T00:05:28.686Z,18.03
2022-09-15T00:06:28.672Z,18.03
2022-09-15T00:07:28.657Z,18.03
2022-09-15T00:08:28.644Z,18.03
2022-09-15T00:09:28.629Z,18.03
2022-09-15T00:10:28.617Z,18.03
2022-09-15T00:11:28.603Z,18.01
2022-09-15T00:12:28.614Z,18.03
2022-09-15T00:13:28.576Z,18.03
2022-09-15T00:14:28.564Z,18.03
2022-09-15T00:15:28.553Z,18.02
2022-09-15T00:16:28.592Z,18.03
2022-09-15T00:17:28.522Z,18.05
2022-09-15T00:18:28.510Z,18.02
2022-09-15T00:19:28.498Z,18.03
2022-09-15T00:20:28.484Z,18.03
2022-09-15T00:21:28.470Z,18.03
2022-09-15T00:22:28.458Z,18.02
2022-09-15T00:23:28.441Z,18.02
2022-09-15T00:24:28.432Z,18.02
2022-09-15T00:25:28.414Z,18.03
2022-09-15T00:26:28.404Z,18.02
2022-09-15T00:27:28.390Z,18.02
2022-09-15T00:28:28.400Z,18.03
2022-09-15T00:29:28.361Z,18.03
2022-09-15T00:30:28.386Z,18.02
2022-09-15T00:31:28.405Z,18.02
2022-09-15T00:32:28.322Z,18.01
2022-09-15T00:33:28.306Z,18.01
2022-09-15T00:34:28.299Z,18.02
2022-09-15T00:35:28.280Z,18.01
2022-09-15T00:36:28.267Z,18.02
2022-09-15T00:37:28.252Z,18.02
2022-09-15T00:38:28.241Z,18.02
2022-09-15T00:39:28.225Z,18.01
2022-09-15T00:40:28.350Z,18.03
2022-09-15T00:41:28.212Z,18.01
2022-09-15T00:42:28.187Z,18.02
2022-09-15T00:43:28.173Z,18.02
2022-09-15T00:44:28.242Z,18.02
2022-09-15T00:45:28.188Z,18.01
2022-09-15T00:46:28.134Z,18.02
2022-09-15T00:47:28.118Z,18.02
2022-09-15T00:48:28.106Z,18.01
2022-09-15T00:49:28.092Z,18.01
2022-09-15T00:50:28.078Z,18.01
2022-09-15T00:51:28.063Z,18.01
2022-09-15T00:52:28.052Z,18.01
2022-09-15T00:53:28.037Z,18.01
2022-09-15T00:54:28.025Z,17.99
2022-09-15T00:55:28.010Z,17.99
2022-09-15T00:56:27.998Z,17.99
2022-09-15T00:57:27.984Z,17.99
2022-09-15T00:58:27.971Z,17.99
2022-09-15T00:59:27.957Z,17.99
2022-09-15T01:00:27.980Z,17.98
2022-09-15T01:01:27.985Z,18.01
2022-09-15T01:02:27.960Z,17.99
2022-09-15T01:03:27.902Z,18.01
2022-09-15T01:04:27.891Z,17.99
2022-09-15T01:05:27.876Z,17.99
2022-09-15T01:06:27.863Z,17.99
2022-09-15T01:07:27.848Z,17.99
2022-09-15T01:08:27.835Z,17.99
2022-09-15T01:09:27.819Z,17.99
2022-09-15T01:10:27.808Z,17.99
2022-09-15T01:11:27.792Z,17.99
2022-09-15T01:12:27.781Z,18.01
2022-09-15T01:13:27.767Z,17.99
2022-09-15T01:14:27.754Z,17.99
2022-09-15T01:15:27.737Z,18.01
2022-09-15T01:16:27.829Z,17.99
2022-09-15T01:17:27.710Z,17.98
2022-09-15T01:18:27.703Z,17.99
2022-09-15T01:19:27.683Z,17.99
2022-09-15T01:20:27.671Z,17.99
2022-09-15T01:21:27.657Z,17.98
2022-09-15T01:22:27.645Z,17.99
2022-09-15T01:23:27.631Z,17.98
2022-09-15T01:24:27.619Z,17.98
2022-09-15T01:25:27.603Z,17.98
2022-09-15T01:26:27.592Z,17.96
2022-09-15T01:27:41.585Z,17.98
2022-09-15T01:28:28.604Z,17.98
2022-09-15T01:29:27.550Z,17.98
2022-09-15T01:30:27.539Z,17.98
2022-09-15T01:31:27.666Z,17.98
2022-09-15T01:32:27.534Z,17.98
2022-09-15T01:33:27.513Z,17.99
2022-09-15T01:34:27.497Z,17.96
2022-09-15T01:35:27.470Z,17.96
2022-09-15T01:36:27.457Z,17.98
2022-09-15T01:37:27.443Z,17.96
2022-09-15T01:38:27.432Z,17.98
2022-09-15T01:39:27.416Z,17.96
2022-09-15T01:40:27.471Z,17.96
2022-09-15T01:41:27.391Z,17.98
2022-09-15T01:42:27.379Z,17.96
2022-09-15T01:43:27.366Z,17.96
2022-09-15T01:44:27.355Z,17.94
2022-09-15T01:45:27.406Z,17.96
2022-09-15T01:46:27.326Z,17.94
2022-09-15T01:47:27.315Z,17.94
2022-09-15T01:48:27.323Z,17.94
2022-09-15T01:49:27.285Z,17.96
2022-09-15T01:50:27.274Z,17.94
2022-09-15T01:51:27.259Z,17.94
2022-09-15T01:52:27.248Z,17.96
2022-09-15T01:53:27.233Z,17.94
2022-09-15T01:54:27.220Z,17.94
2022-09-15T01:55:27.207Z,17.93
2022-09-15T01:56:27.194Z,17.94
2022-09-15T01:57:27.180Z,17.93
2022-09-15T01:58:27.167Z,17.93
2022-09-15T01:59:27.154Z,17.94
2022-09-15T02:00:27.140Z,17.93
2022-09-15T02:01:27.264Z,17.93
2022-09-15T02:02:27.233Z,17.96
2022-09-15T02:03:27.099Z,17.94
2022-09-15T02:04:27.113Z,17.94
2022-09-15T02:05:27.072Z,17.94
2022-09-15T02:06:27.059Z,17.94
2022-09-15T02:07:27.045Z,17.94
2022-09-15T02:08:27.034Z,17.91
2022-09-15T02:09:27.029Z,17.91
2022-09-15T02:10:27.006Z,17.91
2022-09-15T02:11:26.992Z,17.91
2022-09-15T02:12:26.980Z,17.91
2022-09-15T02:13:26.965Z,17.91
2022-09-15T02:14:26.953Z,17.91
2022-09-15T02:15:26.940Z,17.91
2022-09-15T02:16:26.981Z,17.94
2022-09-15T02:17:26.910Z,17.91
2022-09-15T02:18:26.900Z,17.91
2022-09-15T02:19:26.885Z,17.93
2022-09-15T02:20:26.976Z,17.93
2022-09-15T02:21:26.859Z,17.93
2022-09-15T02:22:26.850Z,17.93
2022-09-15T02:23:26.839Z,17.93
2022-09-15T02:24:26.816Z,17.94
2022-09-15T02:25:26.805Z,17.91
2022-09-15T02:26:26.790Z,17.91
2022-09-15T02:27:26.778Z,17.91
2022-09-15T02:28:26.764Z,17.91
2022-09-15T02:29:26.753Z,17.91
2022-09-15T02:30:26.739Z,17.91
2022-09-15T02:31:26.758Z,17.90
2022-09-15T02:32:26.712Z,17.93
2022-09-15T02:33:26.701Z,17.91
2022-09-15T02:34:26.687Z,17.91
2022-09-15T02:35:26.672Z,17.91
2022-09-15T02:36:26.682Z,17.93
2022-09-15T02:37:26.647Z,17.93
2022-09-15T02:38:26.633Z,17.93
2022-09-15T02:39:26.618Z,17.94
2022-09-15T02:40:26.658Z,17.93
2022-09-15T02:41:26.591Z,17.93
2022-09-15T02:42:26.576Z,17.91
2022-09-15T02:43:26.564Z,17.91
2022-09-15T02:44:26.554Z,17.91
2022-09-15T02:45:26.577Z,17.91
2022-09-15T02:46:26.521Z,17.93
2022-09-15T02:47:26.512Z,17.90
2022-09-15T02:48:26.495Z,17.91
2022-09-15T02:49:26.485Z,17.91
2022-09-15T02:50:26.470Z,17.91
2022-09-15T02:51:26.460Z,17.93
2022-09-15T02:52:26.506Z,17.91
2022-09-15T02:53:26.432Z,17.91
2022-09-15T02:54:26.418Z,17.91
2022-09-15T02:55:26.407Z,17.90
2022-09-15T02:56:26.392Z,17.90
2022-09-15T02:57:26.383Z,17.91
2022-09-15T02:58:26.365Z,17.90
2022-09-15T02:59:26.355Z,17.90
2022-09-15T03:00:26.351Z,17.90
2022-09-15T03:01:26.367Z,17.90
2022-09-15T03:02:26.357Z,17.90
2022-09-15T03:03:26.302Z,17.90
2022-09-15T03:04:26.285Z,17.91
2022-09-15T03:05:26.273Z,17.91
2022-09-15T03:06:26.259Z,17.90
2022-09-15T03:07:26.248Z,17.91
2022-09-15T03:08:26.255Z,17.90
2022-09-15T03:09:26.221Z,17.90
2022-09-15T03:10:26.205Z,17.90
2022-09-15T03:11:26.223Z,17.90
2022-09-15T03:12:26.178Z,17.90
2022-09-15T03:13:26.168Z,17.91
2022-09-15T03:14:26.151Z,17.88
2022-09-15T03:15:26.138Z,17.88
2022-09-15T03:16:26.201Z,17.88
2022-09-15T03:17:26.115Z,17.87
2022-09-15T03:18:26.097Z,17.87
2022-09-15T03:19:26.086Z,17.88
2022-09-15T03:20:26.072Z,17.88
2022-09-15T03:21:26.092Z,17.87
2022-09-15T03:22:26.045Z,17.87
2022-09-15T03:23:26.034Z,17.88
2022-09-15T03:24:26.059Z,17.88
2022-09-15T03:25:26.012Z,17.88
2022-09-15T03:26:25.994Z,17.88
2022-09-15T03:27:25.979Z,17.88
2022-09-15T03:28:25.964Z,17.88
2022-09-15T03:29:25.954Z,17.88
2022-09-15T03:30:25.936Z,17.88
2022-09-15T03:31:26.029Z,17.87
2022-09-15T03:32:25.910Z,17.87
2022-09-15T03:33:25.897Z,17.88
2022-09-15T03:34:25.883Z,17.88
2022-09-15T03:35:25.872Z,17.87
2022-09-15T03:36:25.855Z,17.88
2022-09-15T03:37:25.844Z,17.87
2022-09-15T03:38:25.828Z,17.88
2022-09-15T03:39:25.816Z,17.87
2022-09-15T03:40:25.887Z,17.87
2022-09-15T03:41:25.790Z,17.88
2022-09-15T03:42:25.776Z,17.87
2022-09-15T03:43:25.764Z,17.86
2022-09-15T03:44:25.750Z,17.87
2022-09-15T03:45:25.779Z,17.86
2022-09-15T03:46:25.722Z,17.88
2022-09-15T03:47:25.709Z,17.86
2022-09-15T03:48:25.696Z,17.87
2022-09-15T03:49:25.683Z,17.87
2022-09-15T03:50:25.669Z,17.87
2022-09-15T03:51:25.657Z,17.86
2022-09-15T03:52:25.642Z,17.87
2022-09-15T03:53:25.630Z,17.86
2022-09-15T03:54:25.615Z,17.84
2022-09-15T03:55:25.613Z,17.87
2022-09-15T03:56:25.614Z,17.86
2022-09-15T03:57:25.577Z,17.86
2022-09-15T03:58:28.945Z,17.87
2022-09-15T03:59:25.575Z,17.87
2022-09-15T04:00:25.536Z,17.86
2022-09-15T04:01:25.523Z,17.87
2022-09-15T04:02:25.545Z,17.90
2022-09-15T04:03:25.496Z,17.87
2022-09-15T04:04:25.480Z,17.87
2022-09-15T04:05:25.470Z,17.86
2022-09-15T04:06:25.456Z,17.87
2022-09-15T04:07:25.441Z,17.87
2022-09-15T04:08:25.428Z,17.86
2022-09-15T04:09:25.417Z,17.86
2022-09-15T04:10:25.401Z,17.86
2022-09-15T04:11:25.390Z,17.84
2022-09-15T04:12:25.400Z,17.86
2022-09-15T04:13:28.580Z,17.87
2022-09-15T04:14:25.350Z,17.86
2022-09-15T04:15:25.335Z,17.87
2022-09-15T04:16:25.378Z,17.86
2022-09-15T04:17:25.309Z,17.86
2022-09-15T04:18:25.295Z,17.86
2022-09-15T04:19:25.283Z,17.86
2022-09-15T04:20:25.268Z,17.86
2022-09-15T04:21:25.257Z,17.86
2022-09-15T04:22:25.243Z,17.87
2022-09-15T04:23:25.232Z,17.87
2022-09-15T04:24:25.218Z,17.86
2022-09-15T04:25:25.205Z,17.87
2022-09-15T04:26:25.189Z,17.86
2022-09-15T04:27:25.178Z,17.86
2022-09-15T04:28:25.189Z,17.86
2022-09-15T04:29:25.152Z,17.86
2022-09-15T04:30:25.139Z,17.87
2022-09-15T04:31:25.254Z,17.86
2022-09-15T04:32:25.112Z,17.86
2022-09-15T04:33:25.099Z,17.87
2022-09-15T04:34:25.085Z,17.87
2022-09-15T04:35:25.074Z,17.87
2022-09-15T04:36:25.057Z,17.87
2022-09-15T04:37:25.048Z,17.86
2022-09-15T04:38:25.032Z,17.86
2022-09-15T04:39:25.021Z,17.86
2022-09-15T04:40:25.077Z,17.87
2022-09-15T04:41:24.993Z,17.86
2022-09-15T04:42:24.981Z,17.86
2022-09-15T04:43:24.967Z,17.86
2022-09-15T04:44:24.980Z,17.86
2022-09-15T04:45:24.943Z,17.86
2022-09-15T04:46:25.003Z,17.86
2022-09-15T04:47:24.916Z,17.87
2022-09-15T04:48:24.900Z,17.86
2022-09-15T04:49:24.889Z,17.86
2022-09-15T04:50:24.875Z,17.86
2022-09-15T04:51:24.862Z,17.87
2022-09-15T04:52:24.846Z,17.86
2022-09-15T04:53:24.833Z,17.86
2022-09-15T04:54:24.818Z,17.87
2022-09-15T04:55:24.808Z,17.86
2022-09-15T04:56:24.794Z,17.84
2022-09-15T04:57:24.780Z,17.86
2022-09-15T04:58:24.766Z,17.84
2022-09-15T04:59:24.753Z,17.84
2022-09-15T05:00:24.762Z,17.84
2022-09-15T05:01:24.808Z,17.84
2022-09-15T05:02:24.763Z,17.84
2022-09-15T05:03:24.701Z,17.83
2022-09-15T05:04:24.686Z,17.84
2022-09-15T05:05:24.679Z,17.86
2022-09-15T05:06:24.697Z,17.84
2022-09-15T05:07:24.649Z,17.83
2022-09-15T05:08:24.632Z,17.84
2022-09-15T05:09:24.642Z,17.83
2022-09-15T05:10:24.638Z,17.83
2022-09-15T05:11:24.593Z,17.84
2022-09-15T05:12:24.579Z,17.84
2022-09-15T05:13:24.574Z,17.86
2022-09-15T05:14:24.556Z,17.83
2022-09-15T05:15:24.542Z,17.83
2022-09-15T05:16:24.738Z,17.83
2022-09-15T05:17:26.777Z,17.83
2022-09-15T05:18:24.498Z,17.83
2022-09-15T05:19:24.488Z,17.86
2022-09-15T05:20:24.469Z,17.83
2022-09-15T05:21:24.458Z,17.83
2022-09-15T05:22:24.443Z,17.83
2022-09-15T05:23:24.433Z,17.83
2022-09-15T05:24:24.416Z,17.81
2022-09-15T05:25:24.405Z,17.83
2022-09-15T05:26:24.388Z,17.81
2022-09-15T05:27:24.377Z,17.83
2022-09-15T05:28:24.362Z,17.83
2022-09-15T05:29:24.352Z,17.83
2022-09-15T05:30:37.796Z,17.83
2022-09-15T05:31:25.481Z,17.81
2022-09-15T05:32:24.392Z,17.81
2022-09-15T05:33:24.296Z,17.81
2022-09-15T05:34:24.284Z,17.81
2022-09-15T05:35:24.271Z,17.81
2022-09-15T05:36:24.258Z,17.80
2022-09-15T05:37:24.243Z,17.81
2022-09-15T05:38:24.228Z,17.81
2022-09-15T05:39:24.217Z,17.80
2022-09-15T05:40:24.237Z,17.81
2022-09-15T05:41:24.189Z,17.83
2022-09-15T05:42:24.173Z,17.80
2022-09-15T05:43:24.161Z,17.80
2022-09-15T05:44:24.147Z,17.80
2022-09-15T05:45:24.137Z,17.83
2022-09-15T05:46:24.145Z,17.81
2022-09-15T05:47:24.111Z,17.80
2022-09-15T05:48:24.117Z,17.81
2022-09-15T05:49:24.081Z,17.81
2022-09-15T05:50:24.067Z,17.83
2022-09-15T05:51:24.056Z,17.80
2022-09-15T05:52:24.042Z,17.80
2022-09-15T05:53:25.035Z,17.81
2022-09-15T05:54:24.018Z,17.80
2022-09-15T05:55:24.004Z,17.80
2022-09-15T05:56:23.988Z,17.78
2022-09-15T05:57:23.976Z,17.78
2022-09-15T05:58:23.963Z,17.80
2022-09-15T05:59:23.952Z,17.78
2022-09-15T06:00:23.937Z,17.78
2022-09-15T06:01:23.992Z,17.78
2022-09-15T06:02:24.018Z,17.78
2022-09-15T06:03:28.707Z,17.78
2022-09-15T06:04:24.950Z,17.78
2022-09-15T06:05:23.874Z,17.77
2022-09-15T06:06:23.858Z,17.77
2022-09-15T06:07:23.846Z,17.78
2022-09-15T06:08:23.834Z,17.77
2022-09-15T06:09:23.822Z,17.75
2022-09-15T06:10:23.807Z,17.77
2022-09-15T06:11:23.795Z,17.75
2022-09-15T06:12:23.782Z,17.75
2022-09-15T06:13:23.770Z,17.77
2022-09-15T06:14:23.756Z,17.77
2022-09-15T06:15:23.742Z,17.77
2022-09-15T06:16:23.813Z,17.78
2022-09-15T06:17:23.712Z,17.80
2022-09-15T06:18:23.698Z,17.80
2022-09-15T06:19:23.689Z,17.81
2022-09-15T06:20:23.970Z,17.81
2022-09-15T06:21:23.667Z,17.80
2022-09-15T06:22:23.647Z,17.80
2022-09-15T06:23:23.637Z,17.81
2022-09-15T06:24:23.620Z,17.80
2022-09-15T06:25:23.609Z,17.81
2022-09-15T06:26:23.613Z,17.80
2022-09-15T06:27:23.588Z,17.81
2022-09-15T06:28:23.570Z,17.81
2022-09-15T06:29:23.560Z,17.81
2022-09-15T06:30:23.545Z,17.80
2022-09-15T06:31:23.552Z,17.81
2022-09-15T06:32:23.517Z,17.80
2022-09-15T06:33:23.506Z,17.81
2022-09-15T06:34:23.492Z,17.83
2022-09-15T06:35:23.481Z,17.81
2022-09-15T06:36:23.492Z,17.83
2022-09-15T06:37:23.454Z,17.81
2022-09-15T06:38:23.443Z,17.83
2022-09-15T06:39:23.429Z,17.83
2022-09-15T06:40:23.460Z,17.83
2022-09-15T06:41:23.405Z,17.86
2022-09-15T06:42:23.392Z,17.86
2022-09-15T06:43:23.378Z,17.87
2022-09-15T06:44:23.366Z,17.87
2022-09-15T06:45:23.352Z,17.88
2022-09-15T06:46:23.418Z,17.86
2022-09-15T06:47:23.327Z,17.87
2022-09-15T06:48:25.147Z,17.87
2022-09-15T06:49:23.299Z,17.87
2022-09-15T06:50:23.291Z,17.87
2022-09-15T06:51:23.276Z,17.88
2022-09-15T06:52:23.291Z,17.88
2022-09-15T06:53:23.249Z,17.88
2022-09-15T06:54:23.243Z,17.93
2022-09-15T06:55:23.224Z,17.91
2022-09-15T06:56:23.217Z,17.93
2022-09-15T06:57:23.198Z,17.90
2022-09-15T06:58:23.189Z,17.91
2022-09-15T06:59:23.174Z,17.90
2022-09-15T07:00:23.164Z,17.91
2022-09-15T07:01:23.147Z,17.90
2022-09-15T07:02:23.305Z,17.90
2022-09-15T07:03:23.219Z,17.91
2022-09-15T07:04:23.114Z,17.90
2022-09-15T07:05:23.097Z,17.93
2022-09-15T07:06:23.087Z,17.91
2022-09-15T07:07:23.074Z,17.93
2022-09-15T07:08:23.183Z,17.93
2022-09-15T07:09:23.048Z,17.94
2022-09-15T07:10:23.037Z,17.99
2022-09-15T07:11:23.025Z,18.02
2022-09-15T07:12:23.008Z,18.01
2022-09-15T07:13:22.997Z,17.99
2022-09-15T07:14:22.985Z,17.98
2022-09-15T07:15:22.972Z,17.98
2022-09-15T07:16:23.016Z,17.99
2022-09-15T07:17:22.943Z,17.96
2022-09-15T07:18:22.933Z,17.96
2022-09-15T07:19:22.916Z,17.96
2022-09-15T07:20:22.907Z,17.94
2022-09-15T07:21:22.892Z,17.96
2022-09-15T07:22:22.880Z,17.98
2022-09-15T07:23:22.864Z,18.01
2022-09-15T07:24:22.878Z,18.02
2022-09-15T07:25:22.838Z,18.02
2022-09-15T07:26:22.825Z,18.03
2022-09-15T07:27:22.813Z,18.01
2022-09-15T07:28:22.798Z,18.03
2022-09-15T07:29:22.783Z,18.02
2022-09-15T07:30:22.771Z,18.02
2022-09-15T07:31:22.843Z,18.03
2022-09-15T07:32:22.746Z,18.05
2022-09-15T07:33:22.729Z,18.05
2022-09-15T07:34:22.722Z,18.05
2022-09-15T07:35:22.703Z,18.03
2022-09-15T07:36:22.701Z,18.03
2022-09-15T07:37:22.677Z,18.02
2022-09-15T07:38:22.664Z,18.02
2022-09-15T07:39:22.650Z,18.02
2022-09-15T07:40:22.780Z,18.01
2022-09-15T07:41:22.627Z,18.01
2022-09-15T07:42:22.613Z,18.01
2022-09-15T07:43:22.598Z,18.01
2022-09-15T07:44:22.584Z,17.98
2022-09-15T07:45:22.603Z,17.96
2022-09-15T07:46:22.560Z,17.96
2022-09-15T07:47:22.544Z,17.94
2022-09-15T07:48:26.308Z,17.94
2022-09-15T07:49:22.519Z,17.93
2022-09-15T07:50:22.555Z,17.93
2022-09-15T07:51:22.495Z,17.93
2022-09-15T07:52:22.486Z,17.91
2022-09-15T07:53:22.467Z,17.91
2022-09-15T07:54:23.142Z,17.93
2022-09-15T07:55:22.448Z,17.91
2022-09-15T07:56:22.458Z,17.90
2022-09-15T07:57:22.416Z,17.91
2022-09-15T07:58:22.402Z,17.90
2022-09-15T07:59:22.393Z,17.90
2022-09-15T08:00:22.441Z,17.90
2022-09-15T08:01:22.712Z,17.91
2022-09-15T08:02:22.405Z,17.93
2022-09-15T08:03:22.360Z,17.91
2022-09-15T08:04:22.327Z,17.91
2022-09-15T08:05:22.312Z,17.94
2022-09-15T08:06:22.302Z,17.94
2022-09-15T08:07:22.290Z,17.93
2022-09-15T08:08:22.276Z,17.94
2022-09-15T08:09:22.411Z,17.94
2022-09-15T08:10:22.349Z,17.93
2022-09-15T08:11:22.233Z,17.96
2022-09-15T08:12:22.292Z,17.98
2022-09-15T08:13:22.209Z,17.98
2022-09-15T08:14:22.195Z,17.96
2022-09-15T08:15:22.190Z,17.98
2022-09-15T08:16:22.266Z,17.99
2022-09-15T08:17:22.160Z,17.98
2022-09-15T08:18:22.164Z,17.96
2022-09-15T08:19:22.137Z,17.98
2022-09-15T08:20:22.126Z,17.96
2022-09-15T08:21:22.153Z,17.96
2022-09-15T08:22:22.101Z,17.98
2022-09-15T08:23:22.079Z,17.96
2022-09-15T08:24:22.071Z,17.98
2022-09-15T08:25:22.054Z,17.98
2022-09-15T08:26:22.043Z,17.98
2022-09-15T08:27:22.030Z,17.98
2022-09-15T08:28:22.040Z,17.96
2022-09-15T08:29:22.004Z,17.98
2022-09-15T08:30:21.995Z,17.98
2022-09-15T08:31:22.009Z,17.98
2022-09-15T08:32:21.972Z,17.98
2022-09-15T08:33:21.951Z,17.98
2022-09-15T08:34:21.940Z,17.99
2022-09-15T08:35:21.925Z,17.98
2022-09-15T08:36:21.915Z,17.96
2022-09-15T08:37:21.899Z,17.99
2022-09-15T08:38:21.887Z,17.99
2022-09-15T08:39:21.874Z,17.99
2022-09-15T08:40:21.915Z,18.01
2022-09-15T08:41:21.845Z,18.01
2022-09-15T08:42:21.834Z,18.01
2022-09-15T08:43:21.820Z,18.02
2022-09-15T08:44:21.839Z,18.03
2022-09-15T08:45:21.793Z,18.02
2022-09-15T08:46:21.841Z,18.03
2022-09-15T08:47:21.770Z,18.03
2022-09-15T08:48:21.763Z,18.05
2022-09-15T08:49:40.959Z,18.06
2022-09-15T08:50:22.767Z,18.06
2022-09-15T08:51:21.715Z,18.06
2022-09-15T08:52:21.701Z,18.06
2022-09-15T08:53:21.686Z,18.06
2022-09-15T08:54:21.673Z,18.06
2022-09-15T08:55:21.659Z,18.05
2022-09-15T08:56:21.647Z,18.05
2022-09-15T08:57:21.634Z,18.06
2022-09-15T08:58:21.621Z,18.05
2022-09-15T08:59:21.609Z,18.05
2022-09-15T09:00:21.619Z,18.03
2022-09-15T09:01:21.623Z,18.03
2022-09-15T09:02:21.595Z,18.03
2022-09-15T09:03:21.553Z,18.02
2022-09-15T09:04:21.542Z,18.02
2022-09-15T09:05:21.528Z,18.05
2022-09-15T09:06:21.516Z,18.05
2022-09-15T09:07:21.501Z,18.05
2022-09-15T09:08:21.490Z,18.08
2022-09-15T09:09:21.475Z,18.05
2022-09-15T09:10:21.464Z,18.05
2022-09-15T09:11:21.464Z,18.06
2022-09-15T09:12:21.441Z,18.06
2022-09-15T09:13:21.422Z,18.06
2022-09-15T09:14:21.410Z,18.06
2022-09-15T09:15:21.395Z,18.03
2022-09-15T09:16:21.436Z,18.05
2022-09-15T09:17:21.370Z,18.05
2022-09-15T09:18:21.358Z,18.05
2022-09-15T09:19:21.344Z,18.06
2022-09-15T09:20:21.337Z,18.06
2022-09-15T09:21:21.318Z,18.05
2022-09-15T09:22:21.312Z,18.05
2022-09-15T09:23:21.291Z,18.05
2022-09-15T09:24:21.279Z,18.03
2022-09-15T09:25:27.652Z,18.03
2022-09-15T09:26:22.292Z,18.03
2022-09-15T09:27:21.238Z,18.02
2022-09-15T09:28:21.227Z,18.02
2022-09-15T09:29:21.215Z,18.01
2022-09-15T09:30:21.201Z,18.01
2022-09-15T09:31:21.256Z,18.02
2022-09-15T09:32:21.970Z,18.02
2022-09-15T09:33:21.161Z,18.01
2022-09-15T09:34:21.151Z,18.02
2022-09-15T09:35:21.136Z,18.02
2022-09-15T09:36:21.125Z,18.02
2022-09-15T09:37:21.111Z,18.01
2022-09-15T09:38:21.102Z,18.02
2022-09-15T09:39:21.087Z,18.03
2022-09-15T09:40:21.127Z,18.02
2022-09-15T09:41:21.065Z,18.02
2022-09-15T09:42:21.056Z,18.01
2022-09-15T09:43:21.035Z,18.02
2022-09-15T09:44:21.025Z,18.03
2022-09-15T09:45:21.011Z,18.02
2022-09-15T09:46:21.074Z,18.03
2022-09-15T09:47:20.986Z,18.02
2022-09-15T09:48:20.999Z,18.03
2022-09-15T09:49:20.965Z,18.03
2022-09-15T09:50:20.948Z,18.03
2022-09-15T09:51:20.933Z,18.03
2022-09-15T09:52:22.076Z,18.02
2022-09-15T09:53:20.909Z,18.03
2022-09-15T09:54:20.898Z,18.03
2022-09-15T09:55:20.879Z,18.03
2022-09-15T09:56:20.867Z,18.03
2022-09-15T09:57:20.853Z,18.05
2022-09-15T09:58:20.843Z,18.03
2022-09-15T09:59:20.828Z,18.05
2022-09-15T10:00:20.815Z,18.06
2022-09-15T10:01:20.893Z,18.08
2022-09-15T10:02:20.789Z,18.05
2022-09-15T10:03:20.775Z,18.05
2022-09-15T10:04:20.805Z,18.06
2022-09-15T10:05:20.752Z,18.06
2022-09-15T10:06:20.736Z,18.06
2022-09-15T10:07:20.721Z,18.06
2022-09-15T10:08:20.709Z,18.05
2022-09-15T10:09:20.695Z,18.03
2022-09-15T10:10:20.679Z,18.05
2022-09-15T10:11:20.663Z,18.05
2022-09-15T10:12:20.654Z,18.03
2022-09-15T10:13:20.639Z,18.05
2022-09-15T10:14:20.627Z,18.06
2022-09-15T10:15:20.612Z,18.03
2022-09-15T10:16:20.692Z,18.02
2022-09-15T10:17:20.590Z,18.02
2022-09-15T10:18:20.576Z,18.03
2022-09-15T10:19:20.561Z,18.05
2022-09-15T10:20:20.573Z,18.03
2022-09-15T10:21:20.534Z,18.05
2022-09-15T10:22:20.523Z,18.06
2022-09-15T10:23:20.507Z,18.06
2022-09-15T10:24:20.496Z,18.08
2022-09-15T10:25:20.489Z,18.11
2022-09-15T10:26:20.468Z,18.09
2022-09-15T10:27:20.452Z,18.11
2022-09-15T10:28:20.492Z,18.12
2022-09-15T10:29:20.427Z,18.11
2022-09-15T10:30:20.412Z,18.12
2022-09-15T10:31:20.453Z,18.11
2022-09-15T10:32:24.841Z,18.12
2022-09-15T10:33:20.370Z,18.09
2022-09-15T10:34:20.359Z,18.09
2022-09-15T10:35:20.342Z,18.12
2022-09-15T10:36:20.355Z,18.11
2022-09-15T10:37:20.314Z,18.12
2022-09-15T10:38:20.302Z,18.12
2022-09-15T10:39:20.292Z,18.12
2022-09-15T10:40:20.386Z,18.11
2022-09-15T10:41:20.264Z,18.14
2022-09-15T10:42:20.251Z,18.14
2022-09-15T10:43:20.235Z,18.12
2022-09-15T10:44:20.227Z,18.14
2022-09-15T10:45:20.208Z,18.14
2022-09-15T10:46:20.293Z,18.14
2022-09-15T10:47:20.181Z,18.14
2022-09-15T10:48:20.170Z,18.17
2022-09-15T10:49:20.155Z,18.16
2022-09-15T10:50:20.146Z,18.17
2022-09-15T10:51:20.128Z,18.14
2022-09-15T10:52:20.148Z,18.14
2022-09-15T10:53:20.104Z,18.16
2022-09-15T10:54:20.093Z,18.17
2022-09-15T10:55:32.078Z,18.18
2022-09-15T10:56:21.101Z,18.20
2022-09-15T10:57:20.126Z,18.21
2022-09-15T10:58:20.038Z,18.21
2022-09-15T10:59:20.025Z,18.21
2022-09-15T11:00:20.010Z,18.21
2022-09-15T11:01:20.126Z,18.24
2022-09-15T11:02:20.037Z,18.24
2022-09-15T11:03:19.974Z,18.24
2022-09-15T11:04:19.956Z,18.23
2022-09-15T11:05:22.655Z,18.23
2022-09-15T11:06:19.930Z,18.24
2022-09-15T11:07:19.916Z,18.24
2022-09-15T11:08:19.937Z,18.23
2022-09-15T11:09:19.892Z,18.23
2022-09-15T11:10:19.879Z,18.23
2022-09-15T11:11:19.864Z,18.21
2022-09-15T11:12:19.852Z,18.21
2022-09-15T11:13:19.841Z,18.20
2022-09-15T11:14:19.824Z,18.18
2022-09-15T11:15:19.817Z,18.18
2022-09-15T11:16:19.872Z,18.18
2022-09-15T11:17:19.785Z,18.18
2022-09-15T11:18:19.771Z,18.18
2022-09-15T11:19:19.761Z,18.18
2022-09-15T11:20:19.746Z,18.17
2022-09-15T11:21:19.734Z,18.18
2022-09-15T11:22:19.743Z,18.18
2022-09-15T11:23:19.712Z,18.16
2022-09-15T11:24:19.719Z,18.17
2022-09-15T11:25:19.680Z,18.16
2022-09-15T11:26:19.675Z,18.16
2022-09-15T11:27:19.655Z,18.12
2022-09-15T11:28:19.640Z,18.12
2022-09-15T11:29:19.631Z,18.11
2022-09-15T11:30:19.616Z,18.09
2022-09-15T11:31:19.682Z,18.11
2022-09-15T11:32:19.637Z,18.11
2022-09-15T11:33:19.580Z,18.12
2022-09-15T11:34:19.568Z,18.12
2022-09-15T11:35:19.553Z,18.14
2022-09-15T11:36:19.537Z,18.11
2022-09-15T11:37:19.529Z,18.12
2022-09-15T11:38:19.512Z,18.12
2022-09-15T11:39:19.506Z,18.14
2022-09-15T11:40:19.559Z,18.09
2022-09-15T11:41:19.474Z,18.08
2022-09-15T11:42:19.602Z,18.12
2022-09-15T11:43:19.448Z,18.09
2022-09-15T11:44:19.434Z,18.12
2022-09-15T11:45:19.422Z,18.12
2022-09-15T11:46:19.453Z,18.14
2022-09-15T11:47:19.398Z,18.16
2022-09-15T11:48:19.383Z,18.17
2022-09-15T11:49:19.372Z,18.17
2022-09-15T11:50:19.358Z,18.21
2022-09-15T11:51:19.346Z,18.18
2022-09-15T11:52:19.331Z,18.18
2022-09-15T11:53:19.325Z,18.21
2022-09-15T11:54:19.303Z,18.21
2022-09-15T11:55:19.293Z,18.23
2022-09-15T11:56:19.300Z,18.24
2022-09-15T11:57:19.265Z,18.23
2022-09-15T11:58:22.010Z,18.21
2022-09-15T11:59:19.238Z,18.20
2022-09-15T12:00:19.226Z,18.20
2022-09-15T12:01:19.211Z,18.17
2022-09-15T12:02:19.353Z,18.17
2022-09-15T12:03:19.337Z,18.14
2022-09-15T12:04:19.170Z,18.16
2022-09-15T12:05:19.545Z,18.12
2022-09-15T12:06:19.143Z,18.12
2022-09-15T12:07:19.133Z,18.11
2022-09-15T12:08:19.117Z,18.12
2022-09-15T12:09:19.106Z,18.11
2022-09-15T12:10:19.101Z,18.12
2022-09-15T12:11:19.074Z,18.09
2022-09-15T12:12:19.312Z,18.11
2022-09-15T12:13:19.048Z,18.12
2022-09-15T12:14:19.036Z,18.14
2022-09-15T12:15:19.026Z,18.14
2022-09-15T12:16:19.070Z,18.14
2022-09-15T12:17:18.997Z,18.14
2022-09-15T12:18:34.850Z,18.14
2022-09-15T12:19:20.022Z,18.12
2022-09-15T12:20:18.954Z,18.14
2022-09-15T12:21:18.943Z,18.14
2022-09-15T12:22:18.927Z,18.14
2022-09-15T12:23:18.916Z,18.16
2022-09-15T12:24:18.900Z,18.14
2022-09-15T12:25:18.890Z,18.16
2022-09-15T12:26:18.873Z,18.14
2022-09-15T12:27:18.863Z,18.16
2022-09-15T12:28:18.949Z,18.16
2022-09-15T12:29:18.836Z,18.16
2022-09-15T12:30:18.820Z,18.14
2022-09-15T12:31:18.886Z,18.14
2022-09-15T12:32:18.796Z,18.16
2022-09-15T12:33:18.783Z,18.16
2022-09-15T12:34:18.771Z,18.17
2022-09-15T12:35:18.757Z,18.16
2022-09-15T12:36:18.741Z,18.16
2022-09-15T12:37:18.730Z,18.16
2022-09-15T12:38:18.714Z,18.17
2022-09-15T12:39:18.704Z,18.16
2022-09-15T12:40:18.725Z,18.17
2022-09-15T12:41:18.683Z,18.17
2022-09-15T12:42:18.671Z,18.16
2022-09-15T12:43:18.650Z,18.16
2022-09-15T12:44:18.659Z,18.17
2022-09-15T12:45:18.625Z,18.17
2022-09-15T12:46:18.725Z,18.17
2022-09-15T12:47:18.598Z,18.16
2022-09-15T12:48:18.582Z,18.17
2022-09-15T12:49:18.570Z,18.16
2022-09-15T12:50:18.556Z,18.16
2022-09-15T12:51:18.543Z,18.17
2022-09-15T12:52:18.529Z,18.16